Mount Victoria, Maryland
Current Conditions -  °F | °C
As of 5:13 PM on Thursday 23 Oct 2014 (Local Time) from K2W6 Reporting Station
Overcast Overcast  
Wind Chill: 61°   Ceiling: 4800
Heat Index: 61°   Visibility: 10mi
Dew Point: 45°   Wind: 10mph
Humidity: 55%   Direction: 300°WNW
Pressure: 29.85"   Gusts: 23mph
Location:  38.35°N, 76.9°W
Report Text: K2W6 232113Z AUTO 30009G20KT 10SM OVC048 16/07 A2985 RMK AO1
Loading
Personal Weather Stations






























Interactive Weather Map
Tropical Storm Tracking
New forecast layout! Learn more

10-Day Weather Forecast

Advertisements
Track Severe Weather on mobile